BIHN

Hornafjordur Airport

Hornafjordur, Iceland
TAF BIHN 171336Z 1714/1723 13007KT 9999 -RA BKN025 OVC035 TEMPO 1714/1723 9000 RA BKN014
Issued Valid From Valid To
Aug-17 @ 13:36 UTC
(an hour ago)
Aug-17 @ 14:00 UTC
(57 minutes ago)
Aug-17 @ 23:00 UTC
(in 8 hours)
Aug-17 @ 14:00 to Aug-17 @ 23:00
TAF BIHN 171336Z 1714/1723 13007KT 9999 -RA BKN025 OVC035
Wind Visibility Clouds Conditions
130° at 7 knots 10,000+ meters
  • Broken at 2,500' AGL
  • Overcast at 3,500' AGL
  • Light Rain
Temporary Aug-17 @ 14:00 to Aug-17 @ 23:00
TEMPO 1714/1723 9000 RA BKN014
Visibility Clouds Conditions
8,996 meters
  • Broken at 1,400' AGL
  • Rain
TAF BIHN 171336Z 1714/1723 13007KT 9999 -RA BKN025 OVC035 TEMPO 1714/1723 9000 RA BKN014
Issued Aug-17 @ 13:36 UTC
(an hour ago)
Valid From Aug-17 @ 14:00 UTC
(57 minutes ago)
Valid To Aug-17 @ 23:00 UTC
(in 8 hours)
Aug-17 @ 14:00 - Aug-17 @ 23:00
Wind Visibility
130° at 7 knots 10,000+ meters
Clouds
  • Broken at 2,500' AGL
  • Overcast at 3,500' AGL
Conditions
  • Light Rain
Temporary Aug-17 @ 14:00 - Aug-17 @ 23:00
Clouds
  • Broken at 1,400' AGL
Conditions
  • Rain